x

Ne Bahamas - 350 Nm Ene Of Nassau, Bahamas (41047) Wave Buoy

12:50pm - Tue 22nd Jul 2014 All times are UTC.

  • Sig Wave height 3.3ft
  • Swell Direction
  • Peak Period 6s
  • Average Period 5s
  • Wind
    16mph, 18mph gusts
  • Sea Temp 84°f
  • Air Temp 83°f
  • Sea Pressure 1021.6mb

More Historic Weather Station data

Upgrade to MSW Pro to gain access to the past 30 days of data for over 8000 Wavebouys and Weather Stations around the globe.

Join Pro

Comparision Forecast

View Surf forecast
   
Tue 07/22 12:50pm 3.5ft 6s 5s 16 18 mph 1021.6mb 84f 83f
11:50am 3.5ft 8s 5s 13 16 mph 1021.5mb 84f 83f
10:50am 3.5ft 6s 5s 13 16 mph 1021.4mb 84f 83f
9:50am 3.5ft 7s 5s 11 13 mph 1020.9mb 84f 82f
8:50am 3.5ft 6s 5s 11 13 mph 1020.6mb 84f 82f
7:50am 3.5ft 7s 5s 11 13 mph 1020.5mb 84f 82f
6:50am 3.5ft 6s 5s 11 13 mph 1020.7mb 84f 83f
5:50am 3.5ft 9s 5s 13 16 mph 1020.7mb 84f 83f
4:50am 3.5ft 7s 5s 11 13 mph 1021.5mb 84f 83f
3:50am 3.5ft 6s 5s 13 16 mph 1021.8mb 84f 83f
2:50am 3.5ft 7s 5s 11 13 mph 1022.1mb 84f 83f
1:50am 3.5ft 7s 5s 11 13 mph 1022.1mb 84f 83f
12:50am 4ft 8s 5s 13 16 mph 1021.6mb 84f 83f
Mon 07/21 11:50pm 4ft 6s 5s 11 13 mph 1021.2mb 85f 83f
9:50pm 3.5ft 6s 5s 11 13 mph 1020.6mb 85f 84f
8:50pm 4ft 7s 5s 11 13 mph 1020.5mb 85f 83f
7:50pm 4ft 6s 5s 9 11 mph 1020.6mb 85f 83f
6:50pm 4.5ft 7s 5s 13 16 mph 1021.1mb 85f 83f
5:50pm 4ft 6s 5s 13 16 mph 1021.4mb 84f 84f
4:50pm 4ft 8s 5s 13 16 mph 1021.5mb 84f 83f
3:50pm 4ft 8s 5s 16 18 mph 1021.4mb 84f 83f
2:50pm 4ft 7s 5s 13 18 mph 1021.5mb 84f 83f
1:50pm 4ft 8s 5s 13 18 mph 1021.4mb 84f 83f
12:50pm 4ft 6s 5s 16 18 mph 1021.3mb 84f 83f
11:50am 4ft 7s 5s 13 16 mph 1021.2mb 84f 83f
10:50am 4ft 7s 5s 13 16 mph 1020.9mb 84f 83f
9:50am 4ft 7s 5s 13 18 mph 1020.3mb 84f 82f
8:50am 3.5ft 8s 5s 13 16 mph 1020.1mb 84f 83f
7:50am 3.5ft 7s 5s 13 16 mph 1020.2mb 84f 83f
6:50am 3.5ft 6s 5s 13 16 mph 1020.3mb 84f 82f
5:50am 4ft 8s 5s 13 16 mph 1020.8mb 84f 83f
4:50am 4ft 7s 5s 13 18 mph 1021.1mb 84f 83f
3:50am 3.5ft 8s 5s 13 16 mph 1021.4mb 84f 83f
2:50am 4ft 7s 5s 13 16 mph 1021.4mb 84f 83f
1:50am 4.5ft 8s 5s 11 13 mph 1021.2mb 84f 83f
12:50am 4.5ft 7s 5s 11 13 mph 1020.6mb 84f 83f
Sun 07/20 11:50pm 4.5ft 7s 5s 11 13 mph 1020.1mb 84f 83f
10:50pm 4.5ft 8s 5s 9 11 mph 1020.2mb 85f 84f
9:50pm 4.5ft 8s 6s 9 13 mph 1020mb 85f 83f
8:50pm 4.5ft 8s 5s 11 13 mph 1019.9mb 85f 83f
7:50pm 4.5ft 6s 5s 13 16 mph 1020.1mb 85f 83f
6:50pm 4.5ft 6s 5s 13 16 mph 1020.7mb 85f 83f
5:50pm 4.5ft 8s 5s 13 18 mph 1021mb 84f 83f
4:50pm 4.5ft 8s 5s 13 18 mph 1021.2mb 84f 83f
3:50pm 4.5ft 7s 5s 16 18 mph 1021.5mb 84f 83f
2:50pm 4.5ft 8s 5s 16 18 mph 1021.1mb 84f 83f
1:50pm 4.5ft 8s 5s 16 20 mph 1021mb 84f 83f
12:50pm 4.5ft 7s 6s 13 16 mph 1021mb 84f 83f
11:50am 4.5ft 7s 6s 13 16 mph 1020.8mb 84f 83f
9:50am 5ft 8s 6s 13 18 mph 1020mb 84f 83f
8:50am 4.5ft 8s 6s 13 16 mph 1019.9mb 84f 82f
7:50am 4.5ft 8s 5s 13 16 mph 1019.9mb 84f 82f
6:50am 4.5ft 7s 5s 11 16 mph 1020.4mb 84f 81f
5:50am 4.5ft 8s 6s 13 16 mph 1020.9mb 84f 83f
4:50am 4.5ft 8s 5s 13 16 mph 1021.3mb 84f 83f
3:50am 4.5ft 8s 5s 13 18 mph 1021.6mb 84f 83f
2:50am 5ft 8s 6s 13 18 mph 1021.6mb 84f 83f
1:50am 4.5ft 7s 5s 13 18 mph 1021.1mb 84f 83f
12:50am 5ft 8s 6s 13 18 mph 1020.8mb 85f 83f
Sat 07/19 11:50pm 5ft 8s 6s 13 16 mph 1020.4mb 85f 84f
10:50pm 5ft 8s 5s 16 18 mph 1019.8mb 85f 84f
9:50pm 5ft 8s 6s 13 16 mph 1019.8mb 85f 83f
8:50pm 5ft 8s 6s 13 16 mph 1019.8mb 85f 83f
7:50pm 5ft 8s 6s 11 13 mph 1020.1mb 85f 82f
6:50pm 5.5ft 8s 6s 11
mph
1020.2mb 85f 82f
5:50pm 5ft 8s 6s 13 16 mph 1020.7mb 85f 83f
4:50pm 5ft 8s 6s 13 16 mph 1021mb 84f 82f
3:50pm 5ft 8s 6s 16 20 mph 1020.9mb 84f 82f
2:50pm 5ft 8s 6s 13 16 mph 1021.2mb 84f 82f
1:50pm 5ft 8s 6s 13 16 mph 1021.3mb 84f 82f
12:50pm 5ft 8s 6s 11 13 mph 1021.1mb 84f 81f
11:50am 6ft 8s 6s 13 16 mph 1021mb 84f 80f
10:50am 5.5ft 8s 6s 18 22 mph 1020.5mb 84f 80f
9:50am 5ft 7s 6s 13 16 mph 1020.2mb 84f 81f
8:50am 5ft 8s 6s 13 18 mph 1019.9mb 84f 81f
7:50am 5.5ft 8s 6s 16 18 mph 1019.5mb 84f 82f
6:50am 5ft 8s 6s 13 18 mph 1019.8mb 84f 81f
5:50am 5ft 8s 6s 13 16 mph 1020.3mb 84f 81f
4:50am 5ft 8s 6s 11 16 mph 1021.1mb 84f 81f
3:50am 4.5ft 8s 6s 9 11 mph 1021.4mb 84f 81f
2:50am 4.5ft 8s 6s 9 11 mph 1021.3mb 84f 80f
1:50am 5ft 8s 6s 9 11 mph 1020.9mb 84f 80f
12:50am 4.5ft 8s 5s 11 13 mph 1020.8mb 84f 79f
Fri 07/18 11:50pm 5ft 8s 5s 13 18 mph 1020.5mb 84f 78f
10:50pm 5.5ft 7s 5s 22 27 mph 1020.3mb 85f 76f
9:50pm 6ft 7s 5s 16 20 mph 1019.9mb 85f 79f
8:50pm 6ft 7s 5s 27 31 mph 1019mb 85f 79f
7:50pm 6ft 7s 6s 18 22 mph 1019.3mb 85f 83f
6:50pm 6.5ft 7s 6s 18 22 mph 1019.2mb 85f 82f
5:50pm 6ft 7s 6s 18 22 mph 1019.4mb 85f 83f
4:50pm 6ft 7s 6s 18 20 mph 1020.2mb 85f 83f
3:50pm 6.5ft 8s 6s 18 20 mph 1020mb 85f 82f
2:50pm 6.5ft 7s 6s 18 20 mph 1020.2mb 85f 82f